Time;durP1;ratioP1;P1;durP2;ratioP2;P2;SDS_P1;SDS_P2;PMS_P1;PMS_P2;Temp;Humidity;BMP_temperature;BMP_pressure;BME280_temperature;BME280_humidity;BME280_pressure;Samples;Min_cycle;Max_cycle;Signal;HPM_P1;HPM_P2
2021/06/01 00:01:57;;;;;;;11.73;6.82;;;17.40;64.40;;;;;;5027449;28;20040;-79
2021/06/01 00:04:23;;;;;;;11.75;6.70;;;17.40;64.40;;;;;;5010916;28;20025;-80
2021/06/01 00:06:49;;;;;;;10.15;5.85;;;17.40;64.50;;;;;;5027157;28;20031;-78
2021/06/01 00:09:20;;;;;;;9.63;5.50;;;17.40;64.40;;;;;;5027181;28;20512;-79
2021/06/01 00:11:47;;;;;;;11.43;6.30;;;17.40;64.40;;;;;;5028343;28;20112;-78
2021/06/01 00:14:14;;;;;;;11.35;5.80;;;17.40;64.40;;;;;;5026956;28;20029;-79
2021/06/01 00:16:40;;;;;;;11.63;6.32;;;17.40;64.40;;;;;;5027012;28;20116;-80
2021/06/01 00:19:08;;;;;;;13.05;6.55;;;17.40;64.40;;;;;;5026923;28;20036;-79
2021/06/01 00:21:34;;;;;;;14.98;6.82;;;17.40;64.30;;;;;;5010603;28;20037;-80
2021/06/01 00:24:01;;;;;;;17.25;7.05;;;17.40;64.40;;;;;;5027172;28;20021;-79
2021/06/01 00:26:26;;;;;;;10.43;6.32;;;17.40;64.50;;;;;;5010816;28;20030;-79
2021/06/01 00:28:52;;;;;;;10.95;6.00;;;17.40;64.60;;;;;;5010609;28;20136;-80
2021/06/01 00:31:18;;;;;;;10.70;6.25;;;17.40;64.70;;;;;;5027330;28;20030;-79
2021/06/01 00:33:44;;;;;;;9.27;5.72;;;17.40;64.80;;;;;;5026779;28;20490;-80
2021/06/01 00:36:10;;;;;;;9.05;5.78;;;17.40;64.90;;;;;;5026976;28;20089;-79
2021/06/01 00:38:36;;;;;;;12.57;6.28;;;17.40;64.90;;;;;;5010414;28;20464;-78
2021/06/01 00:41:03;;;;;;;9.13;5.45;;;17.40;64.90;;;;;;5027137;28;20025;-80
2021/06/01 00:43:29;;;;;;;15.77;6.80;;;17.40;64.90;;;;;;5026562;28;20484;-79
2021/06/01 00:45:54;;;;;;;11.77;5.60;;;17.40;64.80;;;;;;5026827;28;20094;-79
2021/06/01 00:48:20;;;;;;;11.23;5.75;;;17.40;64.80;;;;;;5026773;28;20112;-80
2021/06/01 00:50:46;;;;;;;10.90;6.03;;;17.50;64.90;;;;;;5026768;28;20071;-80
2021/06/01 00:53:12;;;;;;;11.15;5.40;;;17.50;64.90;;;;;;5026572;28;20034;-79
2021/06/01 00:55:38;;;;;;;10.38;5.60;;;17.50;64.90;;;;;;5029200;28;20865;-79
2021/06/01 00:58:04;;;;;;;10.13;5.07;;;17.50;64.90;;;;;;5047713;28;20116;-80
2021/06/01 01:01:19;;;;;;;12.82;6.03;;;17.50;64.80;;;;;;5029904;28;20425;-80
2021/06/01 01:03:20;;;;;;;8.98;5.35;;;17.50;64.70;;;;;;5022744;28;20087;-79
2021/06/01 01:05:49;;;;;;;9.10;5.57;;;17.40;64.60;;;;;;5013517;28;20482;-80
2021/06/01 01:11:28;;;;;;;9.77;5.65;;;17.30;64.90;;;;;;5052144;28;20044;-80
2021/06/01 01:14:01;;;;;;;11.90;5.57;;;17.20;65.00;;;;;;5033736;28;20075;-79
2021/06/01 01:16:30;;;;;;;10.45;5.45;;;17.10;64.90;;;;;;5051689;28;20024;-79
2021/06/01 01:19:01;;;;;;;8.73;5.35;;;17.20;64.90;;;;;;5051559;28;20029;-79
2021/06/01 01:21:45;;;;;;;6.25;4.00;;;17.20;64.90;;;;;;5033529;28;20387;-80
2021/06/01 01:24:44;;;;;;;9.77;4.88;;;17.20;64.70;;;;;;5051459;28;20020;-79
2021/06/01 01:27:43;;;;;;;9.43;5.72;;;17.20;64.70;;;;;;5051538;28;20029;-80
2021/06/01 01:30:11;;;;;;;9.50;5.55;;;17.30;64.70;;;;;;5032729;28;20482;-80
2021/06/01 01:32:47;;;;;;;8.15;5.00;;;17.30;64.60;;;;;;5016883;28;20040;-79
2021/06/01 01:35:15;;;;;;;11.52;5.05;;;17.20;64.70;;;;;;5051255;28;20573;-79
2021/06/01 01:37:41;;;;;;;9.02;4.45;;;17.20;64.70;;;;;;5016736;28;20399;-80
2021/06/01 01:40:09;;;;;;;9.70;5.60;;;17.10;65.00;;;;;;5033458;28;20086;-79
2021/06/01 01:42:43;;;;;;;9.30;5.38;;;17.10;65.20;;;;;;5050891;28;20472;-80
2021/06/01 01:45:34;;;;;;;9.07;4.95;;;17.00;65.30;;;;;;5033039;28;20026;-80
2021/06/01 01:51:11;;;;;;;11.77;6.10;;;17.00;65.60;;;;;;5051029;28;20040;-79
2021/06/01 01:53:43;;;;;;;12.13;6.70;;;16.90;65.70;;;;;;5032835;28;20031;-81
2021/06/01 01:56:09;;;;;;;14.50;6.43;;;16.90;65.90;;;;;;5050591;28;20049;-80
2021/06/01 01:58:35;;;;;;;9.75;6.05;;;17.00;66.00;;;;;;5032779;28;20502;-80
2021/06/01 02:01:02;;;;;;;11.38;6.28;;;17.00;66.10;;;;;;5050702;28;20032;-80
2021/06/01 02:03:28;;;;;;;12.95;6.38;;;17.00;66.00;;;;;;5016513;28;20364;-79
2021/06/01 02:05:54;;;;;;;8.40;5.60;;;17.10;66.10;;;;;;5032776;28;20060;-80
2021/06/01 02:08:20;;;;;;;11.70;5.65;;;17.10;66.10;;;;;;5032709;28;20029;-80
2021/06/01 02:10:47;;;;;;;12.80;5.38;;;17.10;66.00;;;;;;5016008;28;20391;-80
2021/06/01 02:13:13;;;;;;;11.18;5.82;;;17.20;65.90;;;;;;5050337;28;20032;-81
2021/06/01 02:15:38;;;;;;;13.63;5.57;;;17.30;65.80;;;;;;5016005;28;20025;-80
2021/06/01 02:18:04;;;;;;;10.23;5.15;;;17.40;65.70;;;;;;5032171;28;20060;-79
2021/06/01 02:20:30;;;;;;;10.93;5.47;;;17.40;65.50;;;;;;5032286;28;20476;-78
2021/06/01 02:25:55;;;;;;;12.02;4.95;;;17.50;65.50;;;;;;5050521;28;20040;-80
2021/06/01 02:28:28;;;;;;;10.25;5.38;;;17.50;65.50;;;;;;5050337;28;20028;-80
2021/06/01 02:31:03;;;;;;;11.45;5.53;;;17.50;65.60;;;;;;5032229;28;20025;-80
2021/06/01 02:33:31;;;;;;;9.73;6.25;;;17.50;65.90;;;;;;5032164;28;20057;-79
2021/06/01 02:35:59;;;;;;;10.52;6.18;;;17.50;66.20;;;;;;5032051;28;20031;-78
2021/06/01 02:38:28;;;;;;;9.95;6.45;;;17.50;66.20;;;;;;5032105;28;20029;-80
2021/06/01 02:40:54;;;;;;;8.68;5.22;;;17.50;66.10;;;;;;5031927;28;20498;-79
2021/06/01 02:43:20;;;;;;;11.63;5.38;;;17.50;66.60;;;;;;5049739;28;20032;-79
2021/06/01 02:45:47;;;;;;;8.30;5.45;;;17.50;66.20;;;;;;5031971;28;20029;-80
2021/06/01 02:48:19;;;;;;;10.20;5.43;;;17.50;66.30;;;;;;5015339;28;20068;-80
2021/06/01 02:50:47;;;;;;;9.05;5.28;;;17.50;66.70;;;;;;5049662;28;20024;-79
2021/06/01 02:53:14;;;;;;;8.95;5.40;;;17.50;66.90;;;;;;5049558;28;20046;-79
2021/06/01 02:55:41;;;;;;;7.32;4.82;;;17.50;67.00;;;;;;5031453;28;20173;-81
2021/06/01 02:58:08;;;;;;;9.98;5.70;;;17.40;67.20;;;;;;5049490;28;20032;-80
2021/06/01 03:00:36;;;;;;;7.47;5.07;;;17.40;67.20;;;;;;5031556;28;20064;-81
2021/06/01 03:03:06;;;;;;;8.10;5.72;;;17.40;67.20;;;;;;5031550;28;20020;-79
2021/06/01 03:05:32;;;;;;;8.65;5.05;;;17.40;67.20;;;;;;5031491;28;20029;-79
2021/06/01 03:08:07;;;;;;;10.60;5.03;;;17.40;67.40;;;;;;5014980;28;20033;-79
2021/06/01 03:10:32;;;;;;;10.63;5.82;;;17.40;67.80;;;;;;5031473;28;20032;-80
2021/06/01 03:13:00;;;;;;;10.48;5.55;;;17.40;67.90;;;;;;5014905;28;20037;-79
2021/06/01 03:15:26;;;;;;;10.13;5.55;;;17.40;68.10;;;;;;5015224;28;20036;-79
2021/06/01 03:17:52;;;;;;;9.70;6.15;;;17.40;68.20;;;;;;5049175;28;20025;-79
2021/06/01 03:20:19;;;;;;;13.15;7.07;;;17.40;68.40;;;;;;5031272;28;20475;-79
2021/06/01 03:22:45;;;;;;;10.30;6.05;;;17.40;68.40;;;;;;5030937;28;20037;-80
2021/06/01 03:25:12;;;;;;;10.30;6.75;;;17.30;68.40;;;;;;5031496;28;20026;-79
2021/06/01 03:27:37;;;;;;;14.48;6.60;;;17.30;68.60;;;;;;5014780;28;20083;-79
2021/06/01 03:30:05;;;;;;;8.98;5.97;;;17.30;68.60;;;;;;5013902;28;20487;-79
2021/06/01 03:32:31;;;;;;;10.85;6.65;;;17.30;68.80;;;;;;5048650;28;20079;-80
2021/06/01 03:34:56;;;;;;;12.38;6.25;;;17.30;68.80;;;;;;5030866;28;20052;-80
2021/06/01 03:37:22;;;;;;;9.18;6.35;;;17.30;68.80;;;;;;5030846;28;20033;-79
2021/06/01 03:39:48;;;;;;;12.13;6.65;;;17.30;68.70;;;;;;5048715;28;20429;-81
2021/06/01 03:42:14;;;;;;;11.98;6.95;;;17.30;68.70;;;;;;5014536;28;20040;-80
2021/06/01 03:44:41;;;;;;;15.77;8.25;;;17.30;68.60;;;;;;5014314;28;20025;-80
2021/06/01 03:47:07;;;;;;;12.80;7.05;;;17.30;68.60;;;;;;5014192;28;20391;-80
2021/06/01 03:49:34;;;;;;;16.13;7.53;;;17.30;68.60;;;;;;5014205;28;20029;-81
2021/06/01 03:52:00;;;;;;;13.00;7.38;;;17.30;68.70;;;;;;5048325;28;20378;-79
2021/06/01 03:54:27;;;;;;;14.07;7.57;;;17.30;68.70;;;;;;5030359;28;20032;-79
2021/06/01 03:56:52;;;;;;;18.15;7.80;;;17.30;68.80;;;;;;5030020;28;20052;-79
2021/06/01 03:59:18;;;;;;;13.07;7.90;;;17.30;68.80;;;;;;5030320;28;20086;-81
2021/06/01 04:01:44;;;;;;;10.75;7.30;;;17.30;69.00;;;;;;5013872;28;20036;-80
2021/06/01 04:04:10;;;;;;;15.27;7.72;;;17.30;69.20;;;;;;5048219;28;20025;-79
2021/06/01 04:06:35;;;;;;;11.43;6.70;;;17.20;69.20;;;;;;5030454;28;20035;-79
2021/06/01 04:09:01;;;;;;;10.98;7.05;;;17.20;69.30;;;;;;5014102;28;20110;-79
2021/06/01 04:11:27;;;;;;;11.70;7.25;;;17.20;69.50;;;;;;5030302;28;20120;-79
2021/06/01 04:13:53;;;;;;;10.63;8.07;;;17.20;69.60;;;;;;5048117;28;20076;-79
2021/06/01 04:16:19;;;;;;;14.23;6.78;;;17.20;69.70;;;;;;5030163;28;20083;-79
2021/06/01 04:18:45;;;;;;;13.95;6.53;;;17.20;69.80;;;;;;5013740;28;20021;-78
2021/06/01 04:21:10;;;;;;;10.60;6.75;;;17.20;70.10;;;;;;5013671;28;20078;-80
2021/06/01 04:23:36;;;;;;;10.85;6.57;;;17.10;70.20;;;;;;5030390;28;20025;-80
2021/06/01 04:26:02;;;;;;;14.38;6.68;;;17.10;70.40;;;;;;5030221;28;20036;-81
2021/06/01 04:28:27;;;;;;;12.43;6.60;;;17.10;70.70;;;;;;5030176;28;20433;-79
2021/06/01 04:30:53;;;;;;;16.55;7.47;;;17.00;70.90;;;;;;5047919;28;20550;-80
2021/06/01 04:33:19;;;;;;;9.60;7.07;;;17.00;71.10;;;;;;5030120;28;20112;-80
2021/06/01 04:35:44;;;;;;;11.80;7.72;;;17.00;71.20;;;;;;5013407;28;20033;-81
2021/06/01 04:38:10;;;;;;;13.30;7.85;;;17.00;71.20;;;;;;5029858;28;20118;-81
2021/06/01 04:40:36;;;;;;;17.42;7.63;;;17.00;71.20;;;;;;5013533;28;20032;-79
2021/06/01 04:43:02;;;;;;;21.00;7.90;;;17.10;71.20;;;;;;5047574;28;20021;-81
2021/06/01 04:45:28;;;;;;;12.95;6.85;;;17.10;71.20;;;;;;5029949;28;20056;-80
2021/06/01 04:47:53;;;;;;;10.10;6.28;;;17.10;71.30;;;;;;5013685;28;20040;-79
2021/06/01 04:50:19;;;;;;;11.75;6.60;;;17.20;71.30;;;;;;5013696;28;20508;-79
2021/06/01 04:52:46;;;;;;;10.32;7.35;;;17.20;71.40;;;;;;5029717;28;20025;-79
2021/06/01 04:55:12;;;;;;;10.60;6.38;;;17.20;71.60;;;;;;5013630;28;20120;-81
2021/06/01 04:57:39;;;;;;;13.30;7.72;;;17.10;72.00;;;;;;5013223;28;20578;-81
2021/06/01 05:00:07;;;;;;;13.95;7.18;;;17.10;72.30;;;;;;5029937;28;20068;-80
2021/06/01 05:02:33;;;;;;;9.50;7.75;;;17.00;72.60;;;;;;5030097;28;20112;-79
2021/06/01 05:04:59;;;;;;;14.40;6.70;;;16.90;72.80;;;;;;5029621;28;20032;-79
2021/06/01 05:07:25;;;;;;;15.85;6.78;;;16.90;72.90;;;;;;5029590;28;20474;-80
2021/06/01 05:09:50;;;;;;;11.20;7.43;;;16.90;73.10;;;;;;5047585;28;20025;-79
2021/06/01 05:12:16;;;;;;;10.63;7.03;;;17.00;73.70;;;;;;5029767;28;20120;-79
2021/06/01 05:14:42;;;;;;;13.00;6.35;;;17.00;73.40;;;;;;5029691;28;20029;-79
2021/06/01 05:17:07;;;;;;;13.40;7.32;;;17.00;73.50;;;;;;5012820;28;20079;-79
2021/06/01 05:19:33;;;;;;;14.40;7.28;;;17.10;73.90;;;;;;5029406;28;20064;-79
2021/06/01 05:21:59;;;;;;;10.50;6.88;;;17.10;74.20;;;;;;5013096;28;20079;-79
2021/06/01 05:24:25;;;;;;;18.13;8.38;;;17.20;74.30;;;;;;5012893;28;20387;-80
2021/06/01 05:26:51;;;;;;;12.10;7.57;;;17.20;74.30;;;;;;5029726;28;20471;-79
2021/06/01 05:29:17;;;;;;;12.65;7.13;;;17.30;74.40;;;;;;5047412;28;20025;-80
2021/06/01 05:34:37;;;;;;;13.95;7.03;;;17.40;74.20;;;;;;5017650;28;20041;-80
2021/06/01 05:37:03;;;;;;;9.85;6.78;;;17.50;74.00;;;;;;5013213;28;20124;-80
2021/06/01 05:39:29;;;;;;;10.57;7.15;;;17.60;74.00;;;;;;5013042;28;20028;-80
2021/06/01 05:41:55;;;;;;;14.57;6.25;;;17.70;73.80;;;;;;5029498;28;20194;-81
2021/06/01 05:44:20;;;;;;;15.18;8.02;;;17.80;73.70;;;;;;5012650;28;20068;-80
2021/06/01 05:46:46;;;;;;;15.45;7.60;;;17.80;73.60;;;;;;5029509;28;20079;-79
2021/06/01 05:49:12;;;;;;;16.67;7.22;;;17.90;73.50;;;;;;5012701;28;20479;-80
2021/06/01 05:51:38;;;;;;;10.60;6.32;;;17.90;73.60;;;;;;5029323;28;20060;-80
2021/06/01 05:54:06;;;;;;;13.45;7.43;;;17.90;73.70;;;;;;5030444;28;20051;-80
2021/06/01 05:56:32;;;;;;;17.20;8.20;;;18.00;73.90;;;;;;5050545;28;20502;-80
2021/06/01 05:58:58;;;;;;;9.70;7.43;;;18.10;73.90;;;;;;5033116;28;20124;-79
2021/06/01 06:01:24;;;;;;;14.73;7.32;;;18.10;73.80;;;;;;5032630;28;20142;-79
2021/06/01 06:03:50;;;;;;;15.00;7.47;;;18.20;73.90;;;;;;5032625;28;20056;-80
2021/06/01 06:06:16;;;;;;;12.30;7.00;;;18.20;74.00;;;;;;5016118;28;20143;-79
2021/06/01 06:08:42;;;;;;;14.23;6.85;;;18.30;74.20;;;;;;5016370;28;20368;-79
2021/06/01 06:11:08;;;;;;;15.07;6.80;;;18.40;74.10;;;;;;5032991;28;20032;-76
2021/06/01 06:13:35;;;;;;;14.98;6.75;;;18.60;74.10;;;;;;5032535;28;20041;-79
2021/06/01 06:16:02;;;;;;;11.43;7.22;;;18.60;73.90;;;;;;5016075;28;20051;-80
2021/06/01 06:18:30;;;;;;;12.82;7.22;;;19.00;73.80;;;;;;5016372;28;20055;-79
2021/06/01 06:21:00;;;;;;;13.00;7.38;;;19.40;73.40;;;;;;5050665;28;20049;-79
2021/06/01 06:23:28;;;;;;;16.38;7.85;;;19.80;72.50;;;;;;5050430;28;20078;-80
2021/06/01 06:25:53;;;;;;;17.92;7.80;;;20.00;71.80;;;;;;5032256;28;20048;-80
2021/06/01 06:28:19;;;;;;;14.23;8.13;;;20.20;71.10;;;;;;5016400;28;20052;-81
2021/06/01 06:30:45;;;;;;;26.25;7.80;;;20.40;70.50;;;;;;5050152;28;20108;-79
2021/06/01 06:33:11;;;;;;;17.25;8.13;;;20.60;70.10;;;;;;5015620;28;20373;-80
2021/06/01 06:35:36;;;;;;;14.73;8.55;;;20.70;69.40;;;;;;5015454;28;20040;-79
2021/06/01 06:38:02;;;;;;;13.65;7.20;;;20.60;69.00;;;;;;5015120;28;20036;-79
2021/06/01 06:40:28;;;;;;;16.35;7.47;;;20.50;68.90;;;;;;5015461;28;20033;-79
2021/06/01 06:42:54;;;;;;;10.15;7.05;;;20.40;68.70;;;;;;5015661;28;20056;-79
2021/06/01 06:45:19;;;;;;;11.57;6.60;;;20.30;69.00;;;;;;5031863;28;20035;-80
2021/06/01 06:50:16;;;;;;;10.32;6.65;;;20.00;69.70;;;;;;5032597;28;20116;-79
2021/06/01 06:52:43;;;;;;;27.95;7.88;;;19.90;70.20;;;;;;5049489;28;20059;-79
2021/06/01 06:55:10;;;;;;;20.63;8.23;;;19.90;70.60;;;;;;5049633;28;20029;-78
2021/06/01 06:57:37;;;;;;;19.08;8.35;;;20.10;70.60;;;;;;5049229;28;20102;-79
2021/06/01 07:00:18;;;;;;;28.15;9.13;;;20.40;70.20;;;;;;5031744;28;20021;-81
2021/06/01 07:02:45;;;;;;;20.92;8.25;;;20.80;69.20;;;;;;5031548;28;20032;-79
2021/06/01 07:05:12;;;;;;;16.42;8.48;;;21.10;68.40;;;;;;5030285;28;20328;-80
2021/06/01 07:07:39;;;;;;;13.65;7.85;;;21.10;67.80;;;;;;5032725;28;20028;-79
2021/06/01 07:10:07;;;;;;;14.02;7.63;;;21.40;67.60;;;;;;5032747;28;20025;-80
2021/06/01 07:12:32;;;;;;;20.65;8.77;;;21.60;66.90;;;;;;5050963;28;20090;-79
2021/06/01 07:14:58;;;;;;;19.52;8.02;;;21.80;66.30;;;;;;5016220;28;20101;-79
2021/06/01 07:17:24;;;;;;;13.68;8.05;;;22.20;66.00;;;;;;5032448;28;20032;-79
2021/06/01 07:19:54;;;;;;;12.77;7.60;;;22.50;65.60;;;;;;5030956;28;20025;-81
2021/06/01 07:22:20;;;;;;;16.98;10.10;;;22.90;65.00;;;;;;5014915;28;20433;-79
2021/06/01 07:24:47;;;;;;;15.40;8.30;;;23.30;64.20;;;;;;5014928;28;20059;-79
2021/06/01 07:27:13;;;;;;;17.42;8.52;;;23.70;63.50;;;;;;5049262;28;20094;-80
2021/06/01 07:29:39;;;;;;;28.15;8.65;;;24.10;62.80;;;;;;5014824;28;20495;-80
2021/06/01 07:32:05;;;;;;;19.45;8.20;;;24.30;62.10;;;;;;5014361;28;20048;-79
2021/06/01 07:34:31;;;;;;;13.10;7.13;;;24.60;61.40;;;;;;5030903;28;20040;-79
2021/06/01 07:36:56;;;;;;;14.70;8.52;;;24.80;60.70;;;;;;5013814;28;20033;-80
2021/06/01 07:39:22;;;;;;;16.60;9.20;;;24.90;60.40;;;;;;5030604;28;20109;-79
2021/06/01 07:41:48;;;;;;;15.88;7.82;;;25.00;60.20;;;;;;5014030;28;20029;-80
2021/06/01 07:44:14;;;;;;;12.93;7.55;;;25.10;59.70;;;;;;5030661;28;20040;-80
2021/06/01 07:46:40;;;;;;;14.82;8.20;;;25.20;59.40;;;;;;5014123;28;20116;-79
2021/06/01 07:49:06;;;;;;;18.90;9.05;;;25.50;58.70;;;;;;5030939;28;20028;-80
2021/06/01 07:51:31;;;;;;;15.35;8.77;;;25.50;58.40;;;;;;5014285;28;20112;-79
2021/06/01 07:54:06;;;;;;;15.32;7.80;;;25.50;58.60;;;;;;5047962;28;20075;-80
2021/06/01 07:56:33;;;;;;;19.38;10.05;;;25.70;58.50;;;;;;5047911;28;20112;-80
2021/06/01 07:58:58;;;;;;;18.25;9.50;;;26.10;58.40;;;;;;5029782;28;20064;-80
2021/06/01 08:01:24;;;;;;;18.55;9.02;;;26.50;58.10;;;;;;5030109;28;20056;-79
2021/06/01 08:03:50;;;;;;;16.25;8.40;;;26.80;57.70;;;;;;5047732;28;20029;-80
2021/06/01 08:06:16;;;;;;;26.98;8.82;;;27.20;57.20;;;;;;5013725;28;20320;-80
2021/06/01 08:08:42;;;;;;;24.20;9.63;;;27.90;57.10;;;;;;5013534;28;20041;-81
2021/06/01 08:11:08;;;;;;;13.45;7.78;;;29.10;56.30;;;;;;5047697;28;20080;-77
2021/06/01 08:13:34;;;;;;;17.23;8.48;;;30.60;55.30;;;;;;5047609;28;20070;-78
2021/06/01 08:16:02;;;;;;;14.60;7.05;;;31.70;53.30;;;;;;5047304;28;20029;-77
2021/06/01 08:18:31;;;;;;;17.25;7.10;;;32.70;51.60;;;;;;5029516;28;20031;-79
2021/06/01 08:23:32;;;;;;;13.05;5.75;;;33.70;48.60;;;;;;5030854;28;20040;-81
2021/06/01 08:25:58;;;;;;;13.73;5.53;;;34.20;47.80;;;;;;5047673;28;20087;-79
2021/06/01 08:28:24;;;;;;;11.07;5.47;;;34.40;46.40;;;;;;5030287;28;20434;-80
2021/06/01 08:30:51;;;;;;;8.30;4.47;;;34.20;45.60;;;;;;5049064;28;20352;-78
2021/06/01 08:33:18;;;;;;;21.15;6.43;;;34.10;44.90;;;;;;5048618;28;20751;-78
2021/06/01 08:35:44;;;;;;;11.55;4.70;;;34.00;44.60;;;;;;5048623;28;20541;-78
2021/06/01 08:38:09;;;;;;;15.27;5.32;;;34.20;45.00;;;;;;5048685;28;20036;-78
2021/06/01 08:40:35;;;;;;;11.13;4.97;;;34.60;44.60;;;;;;5048897;28;20040;-78
2021/06/01 08:43:01;;;;;;;10.27;4.47;;;35.20;44.20;;;;;;5047744;28;20021;-77
2021/06/01 08:45:26;;;;;;;9.73;4.75;;;35.70;43.60;;;;;;5047913;28;20029;-78
2021/06/01 08:47:56;;;;;;;16.25;5.10;;;35.90;42.50;;;;;;5029926;28;20036;-77
2021/06/01 08:50:21;;;;;;;10.80;4.25;;;35.70;42.20;;;;;;5047087;28;20540;-76
2021/06/01 08:52:47;;;;;;;28.50;5.97;;;35.40;42.10;;;;;;5047305;28;20028;-78
2021/06/01 08:55:13;;;;;;;13.95;4.32;;;35.20;42.30;;;;;;5029885;28;20033;-78
2021/06/01 08:57:40;;;;;;;15.20;4.70;;;35.60;42.20;;;;;;5047973;28;20407;-79
2021/06/01 09:00:09;;;;;;;13.00;4.75;;;35.70;41.60;;;;;;5048340;28;20033;-77
2021/06/01 09:02:35;;;;;;;11.60;4.00;;;35.70;41.10;;;;;;5048794;28;20040;-78
2021/06/01 09:05:06;;;;;;;13.90;4.28;;;35.80;41.40;;;;;;5015041;28;20081;-78
2021/06/01 09:08:02;;;;;;;15.45;3.67;;;36.30;41.00;;;;;;5048841;28;20100;-78
2021/06/01 09:21:47;;;;;;;15.45;5.20;;;36.60;39.60;;;;;;5051598;28;20643;-77
2021/06/01 09:24:15;;;;;;;16.83;5.28;;;35.80;40.20;;;;;;5030983;28;20025;-79
2021/06/01 09:29:22;;;;;;;7.90;3.85;;;34.80;40.90;;;;;;5050735;28;20025;-78
2021/06/01 09:32:16;;;;;;;8.18;4.65;;;34.60;41.20;;;;;;5051948;28;20021;-79
2021/06/01 09:34:46;;;;;;;10.00;3.95;;;34.60;41.10;;;;;;5014647;28;20030;-79
2021/06/01 09:37:24;;;;;;;23.35;4.75;;;34.60;41.00;;;;;;5032887;28;20034;-79
2021/06/01 09:40:13;;;;;;;13.00;4.97;;;34.50;40.40;;;;;;5021539;28;20039;-75
2021/06/01 09:42:44;;;;;;;11.75;4.10;;;34.70;40.80;;;;;;5053558;28;20033;-75
2021/06/01 09:45:20;;;;;;;12.15;4.00;;;35.00;40.70;;;;;;5051202;28;20021;-79
2021/06/01 09:47:57;;;;;;;10.30;3.17;;;35.10;39.90;;;;;;5034207;28;20025;-78
2021/06/01 09:52:58;;;;;;;10.75;3.28;;;36.10;39.40;;;;;;5052445;28;20044;-79
2021/06/01 09:55:27;;;;;;;;;;;36.40;39.00;;;;;;5052547;28;20021;-78
2021/06/01 09:57:55;;;;;;;8.27;3.58;;;36.40;39.40;;;;;;5032711;28;19946;-78
2021/06/01 10:00:25;;;;;;;13.82;3.33;;;36.20;38.80;;;;;;5016335;28;20439;-80
2021/06/01 10:03:01;;;;;;;11.15;3.65;;;36.20;38.90;;;;;;5047968;28;20555;-79
2021/06/01 10:05:33;;;;;;;10.68;3.97;;;36.60;39.30;;;;;;5050088;28;20229;-80
2021/06/01 10:08:09;;;;;;;7.15;4.13;;;37.20;39.00;;;;;;5050903;28;20036;-80
2021/06/01 10:10:35;;;;;;;8.98;3.63;;;37.50;38.80;;;;;;5017167;28;20056;-80
2021/06/01 10:13:09;;;;;;;8.25;4.18;;;37.60;38.80;;;;;;5033758;28;20119;-79
2021/06/01 10:15:37;;;;;;;16.85;4.50;;;37.80;38.30;;;;;;5051443;28;20025;-80
2021/06/01 10:18:05;;;;;;;9.87;4.70;;;37.70;38.20;;;;;;5016889;28;20049;-79
2021/06/01 10:20:33;;;;;;;9.13;4.75;;;37.50;38.30;;;;;;5033904;28;20360;-78
2021/06/01 10:23:00;;;;;;;7.45;4.65;;;37.60;38.20;;;;;;5033377;28;20025;-77
2021/06/01 10:25:26;;;;;;;10.07;4.65;;;37.30;38.10;;;;;;5051388;28;20021;-77
2021/06/01 10:27:57;;;;;;;7.47;4.60;;;37.10;38.30;;;;;;5051438;28;20041;-77
2021/06/01 10:30:23;;;;;;;9.52;5.20;;;37.10;38.50;;;;;;5034696;28;20029;-79
2021/06/01 10:32:52;;;;;;;12.93;4.97;;;36.90;38.40;;;;;;5034975;28;20120;-78
2021/06/01 10:35:21;;;;;;;19.08;5.32;;;36.40;38.20;;;;;;5051417;28;20134;-78
2021/06/01 10:51:58;;;;;;;9.82;4.88;;;34.50;39.40;;;;;;5052925;28;20037;-78
2021/06/01 10:54:38;;;;;;;12.82;4.72;;;34.40;39.20;;;;;;5051151;28;20451;-76
2021/06/01 10:57:05;;;;;;;7.88;4.38;;;34.40;39.40;;;;;;5036626;28;20071;-78
2021/06/01 11:02:30;;;;;;;;;;;34.10;39.70;;;;;;5051925;28;20365;-79
2021/06/01 11:05:15;;;;;;;6.40;4.75;;;34.00;40.00;;;;;;5050492;28;19912;-79
2021/06/01 11:07:54;;;;;;;8.90;3.80;;;33.50;39.60;;;;;;5050761;28;20025;-79
2021/06/01 11:10:42;;;;;;;5.57;3.55;;;33.10;39.90;;;;;;5032368;28;20063;-77
2021/06/01 11:13:18;;;;;;;6.37;4.40;;;32.70;39.60;;;;;;5032920;28;20029;-79
2021/06/01 11:15:56;;;;;;;10.55;3.78;;;32.50;40.00;;;;;;5017158;28;20272;-79
2021/06/01 11:18:36;;;;;;;10.25;4.40;;;32.90;40.50;;;;;;5032154;28;20029;-79
2021/06/01 11:21:41;;;;;;;9.82;4.03;;;33.60;40.70;;;;;;5033668;28;20120;-77
2021/06/01 11:24:49;;;;;;;8.88;3.97;;;34.50;40.80;;;;;;5032393;28;20071;-79
2021/06/01 11:35:36;;;;;;;11.75;4.28;;;35.80;39.30;;;;;;5051879;28;20056;-79
2021/06/01 11:43:33;;;;;;;6.63;3.53;;;35.10;38.80;;;;;;5051110;28;20056;-79
2021/06/01 11:51:23;;;;;;;8.05;4.60;;;35.10;38.60;;;;;;5049899;28;20026;-79
2021/06/01 11:54:09;;;;;;;12.40;3.63;;;34.90;38.40;;;;;;5050716;28;20099;-78
2021/06/01 12:14:00;;;;;;;6.78;4.30;;;32.40;39.30;;;;;;5026342;28;20029;-77
2021/06/01 12:19:16;;;;;;;6.68;3.83;;;31.90;39.60;;;;;;5050599;28;19916;-78
2021/06/01 12:21:46;;;;;;;8.13;3.70;;;31.60;39.60;;;;;;5050600;28;20013;-79
2021/06/01 12:24:22;;;;;;;9.45;3.58;;;31.40;39.60;;;;;;5048359;28;20101;-78
2021/06/01 12:32:11;;;;;;;5.73;3.50;;;30.20;40.70;;;;;;5049548;28;20028;-80
2021/06/01 12:43:50;;;;;;;12.27;4.75;;;29.80;42.00;;;;;;5049047;28;20006;-79
2021/06/01 13:19:17;;;;;;;11.85;5.85;;;31.90;39.70;;;;;;5049823;28;20040;-80
2021/06/01 13:20:38;;;;;;;9.77;5.50;;;30.00;40.70;;;;;;5051285;28;20598;-79
2021/06/01 13:39:59;;;;;;;9.15;6.10;;;27.40;43.90;;;;;;5052722;28;20452;-77
2021/06/01 13:50:52;;;;;;;10.27;6.25;;;26.70;44.40;;;;;;5034410;28;20147;-78
2021/06/01 13:56:06;;;;;;;11.15;5.97;;;26.00;45.40;;;;;;5036959;28;20067;-77
2021/06/01 14:09:37;;;;;;;11.82;6.93;;;25.50;46.30;;;;;;5052287;28;20089;-79
2021/06/01 15:50:10;;;;;;;8.63;4.60;;;24.80;47.40;;;;;;5034219;28;20056;-78
2021/06/01 16:23:36;;;;;;;11.63;5.55;;;24.70;48.30;;;;;;5047207;28;20524;-78
2021/06/01 16:31:44;;;;;;;9.77;5.15;;;24.80;48.70;;;;;;5036576;28;20044;-77
2021/06/01 16:43:09;;;;;;;16.73;6.00;;;24.90;48.50;;;;;;5027587;28;20039;-77
2021/06/01 17:05:04;;;;;;;11.13;6.38;;;24.60;49.40;;;;;;5049406;28;20119;-77
2021/06/01 17:13:06;;;;;;;10.30;5.22;;;24.40;49.90;;;;;;5029075;28;20099;-78
2021/06/01 17:15:34;;;;;;;12.27;5.82;;;24.30;49.90;;;;;;5027720;28;20080;-77
2021/06/01 17:18:09;;;;;;;7.78;4.90;;;24.30;50.00;;;;;;5038531;28;20348;-77
2021/06/01 17:35:24;;;;;;;13.20;5.57;;;23.50;50.70;;;;;;4978686;28;20048;-78
2021/06/01 17:37:19;;;;;;;13.27;5.18;;;23.40;51.00;;;;;;5026968;28;20052;-78
2021/06/01 17:39:45;;;;;;;8.50;4.95;;;23.40;51.20;;;;;;5016422;28;20025;-79
2021/06/01 17:42:16;;;;;;;6.68;5.15;;;23.40;51.20;;;;;;5031458;28;20089;-78
2021/06/01 17:44:42;;;;;;;8.25;5.00;;;23.40;51.20;;;;;;5014006;28;20032;-78
2021/06/01 17:47:16;;;;;;;9.10;5.28;;;23.30;51.10;;;;;;5030663;28;20022;-78
2021/06/01 17:49:52;;;;;;;11.40;5.47;;;23.20;51.20;;;;;;5032084;28;20025;-79
2021/06/01 17:52:29;;;;;;;12.25;6.03;;;23.10;51.30;;;;;;5022349;28;20096;-78
2021/06/01 17:54:57;;;;;;;20.10;5.15;;;23.10;51.60;;;;;;5053391;28;20033;-78
2021/06/01 17:57:25;;;;;;;7.70;4.53;;;23.10;51.80;;;;;;5019537;28;20124;-78
2021/06/01 17:59:51;;;;;;;11.63;5.47;;;23.10;51.70;;;;;;5034726;28;20025;-78
2021/06/01 18:02:18;;;;;;;10.00;4.85;;;23.10;51.70;;;;;;5018148;28;20550;-77
2021/06/01 18:04:46;;;;;;;9.68;4.15;;;23.20;51.80;;;;;;5053237;28;20096;-77
2021/06/01 18:07:33;;;;;;;5.30;4.03;;;23.30;51.80;;;;;;5034878;28;20199;-79
2021/06/01 19:24:28;;;;;;;10.90;5.55;;;21.40;55.60;;;;;;5052809;28;20031;-78
2021/06/01 19:52:13;;;;;;;13.00;6.85;;;21.00;57.20;;;;;;5051696;28;20055;-77
2021/06/01 19:54:39;;;;;;;10.10;5.30;;;20.90;57.20;;;;;;5032815;28;20037;-77
2021/06/01 19:57:05;;;;;;;8.90;5.13;;;20.90;57.40;;;;;;5016637;28;20057;-78
2021/06/01 19:59:33;;;;;;;9.65;5.70;;;20.80;57.70;;;;;;5049782;28;20032;-78
2021/06/01 20:01:59;;;;;;;11.35;6.53;;;20.70;57.90;;;;;;5050537;28;20025;-78
2021/06/01 20:04:27;;;;;;;11.18;6.00;;;20.70;58.00;;;;;;5051658;28;20048;-78
2021/06/01 20:06:53;;;;;;;11.40;6.00;;;20.60;58.10;;;;;;5017400;28;20032;-78
2021/06/01 20:09:19;;;;;;;10.93;7.10;;;20.60;58.40;;;;;;5032472;28;20452;-77
2021/06/01 20:11:46;;;;;;;16.38;6.35;;;20.50;58.70;;;;;;5000555;28;20051;-77
2021/06/01 20:14:12;;;;;;;12.25;8.15;;;20.40;58.90;;;;;;5050832;28;20544;-78
2021/06/01 20:16:43;;;;;;;14.43;7.03;;;20.30;59.10;;;;;;5017088;28;20042;-78
2021/06/01 20:19:14;;;;;;;12.15;7.10;;;20.20;59.30;;;;;;5034946;28;20025;-77
2021/06/01 20:21:43;;;;;;;12.90;6.75;;;20.10;59.40;;;;;;5034173;28;20092;-77
2021/06/01 20:24:14;;;;;;;10.63;7.43;;;20.10;59.60;;;;;;5033901;28;20475;-78
2021/06/01 20:26:42;;;;;;;9.80;7.35;;;20.00;59.70;;;;;;5033881;28;20048;-78